sensor_id;sensor_type;location;lat;lon;timestamp;P1;durP1;ratioP1;P2;durP2;ratioP2
71496;SDS011;59317;53.218;5.730;2022-09-16T00:02:21;4.50;;;0.33;;
71496;SDS011;59317;53.218;5.730;2022-09-16T00:04:47;6.30;;;0.40;;
71496;SDS011;59317;53.218;5.730;2022-09-16T00:07:13;7.55;;;0.60;;
71496;SDS011;59317;53.218;5.730;2022-09-16T00:09:39;6.38;;;0.57;;
71496;SDS011;59317;53.218;5.730;2022-09-16T00:12:05;4.63;;;0.57;;
71496;SDS011;59317;53.218;5.730;2022-09-16T00:14:32;7.93;;;0.60;;
71496;SDS011;59317;53.218;5.730;2022-09-16T00:16:58;8.02;;;0.90;;
71496;SDS011;59317;53.218;5.730;2022-09-16T00:19:24;6.57;;;0.50;;
71496;SDS011;59317;53.218;5.730;2022-09-16T00:21:50;5.78;;;0.40;;
71496;SDS011;59317;53.218;5.730;2022-09-16T00:24:16;3.20;;;0.30;;
71496;SDS011;59317;53.218;5.730;2022-09-16T00:26:42;5.03;;;0.50;;
71496;SDS011;59317;53.218;5.730;2022-09-16T00:29:08;6.40;;;0.70;;
71496;SDS011;59317;53.218;5.730;2022-09-16T00:31:34;5.65;;;0.40;;
71496;SDS011;59317;53.218;5.730;2022-09-16T00:34:00;8.27;;;0.50;;
71496;SDS011;59317;53.218;5.730;2022-09-16T00:36:26;6.35;;;0.40;;
71496;SDS011;59317;53.218;5.730;2022-09-16T00:38:54;7.37;;;0.70;;
71496;SDS011;59317;53.218;5.730;2022-09-16T00:41:22;10.27;;;0.77;;
71496;SDS011;59317;53.218;5.730;2022-09-16T00:43:56;7.00;;;0.52;;
71496;SDS011;59317;53.218;5.730;2022-09-16T00:49:02;7.30;;;0.50;;
71496;SDS011;59317;53.218;5.730;2022-09-16T00:51:29;9.73;;;0.73;;
71496;SDS011;59317;53.218;5.730;2022-09-16T00:53:56;6.47;;;0.63;;
71496;SDS011;59317;53.218;5.730;2022-09-16T00:56:26;8.15;;;0.60;;
71496;SDS011;59317;53.218;5.730;2022-09-16T00:58:55;7.43;;;0.60;;
71496;SDS011;59317;53.218;5.730;2022-09-16T01:01:26;10.73;;;0.70;;
71496;SDS011;59317;53.218;5.730;2022-09-16T01:03:53;7.90;;;0.65;;
71496;SDS011;59317;53.218;5.730;2022-09-16T01:06:19;6.65;;;0.50;;
71496;SDS011;59317;53.218;5.730;2022-09-16T01:08:46;9.60;;;0.90;;
71496;SDS011;59317;53.218;5.730;2022-09-16T01:11:13;9.73;;;0.80;;
71496;SDS011;59317;53.218;5.730;2022-09-16T01:13:39;7.90;;;0.77;;
71496;SDS011;59317;53.218;5.730;2022-09-16T01:21:12;6.50;;;0.47;;
71496;SDS011;59317;53.218;5.730;2022-09-16T01:29:02;5.97;;;0.65;;
71496;SDS011;59317;53.218;5.730;2022-09-16T01:31:34;7.22;;;0.47;;
71496;SDS011;59317;53.218;5.730;2022-09-16T01:41:44;6.55;;;0.50;;
71496;SDS011;59317;53.218;5.730;2022-09-16T01:46:46;4.35;;;0.47;;
71496;SDS011;59317;53.218;5.730;2022-09-16T01:51:48;6.40;;;0.60;;
71496;SDS011;59317;53.218;5.730;2022-09-16T01:54:19;6.43;;;0.60;;
71496;SDS011;59317;53.218;5.730;2022-09-16T01:56:59;5.78;;;0.43;;
71496;SDS011;59317;53.218;5.730;2022-09-16T01:59:29;7.95;;;0.50;;
71496;SDS011;59317;53.218;5.730;2022-09-16T02:02:00;8.20;;;0.60;;
71496;SDS011;59317;53.218;5.730;2022-09-16T02:04:32;6.35;;;0.80;;
71496;SDS011;59317;53.218;5.730;2022-09-16T02:06:59;5.13;;;0.50;;
71496;SDS011;59317;53.218;5.730;2022-09-16T02:09:31;9.60;;;0.75;;
71496;SDS011;59317;53.218;5.730;2022-09-16T02:11:59;8.57;;;0.70;;
71496;SDS011;59317;53.218;5.730;2022-09-16T02:14:29;8.23;;;0.80;;
71496;SDS011;59317;53.218;5.730;2022-09-16T02:16:57;8.57;;;0.70;;
71496;SDS011;59317;53.218;5.730;2022-09-16T02:19:27;6.38;;;0.60;;
71496;SDS011;59317;53.218;5.730;2022-09-16T02:21:55;7.03;;;0.80;;
71496;SDS011;59317;53.218;5.730;2022-09-16T02:24:22;8.13;;;0.60;;
71496;SDS011;59317;53.218;5.730;2022-09-16T02:26:54;6.88;;;0.70;;
71496;SDS011;59317;53.218;5.730;2022-09-16T02:29:22;8.02;;;0.90;;
71496;SDS011;59317;53.218;5.730;2022-09-16T02:31:50;10.70;;;1.00;;
71496;SDS011;59317;53.218;5.730;2022-09-16T02:34:18;11.07;;;1.05;;
71496;SDS011;59317;53.218;5.730;2022-09-16T02:36:46;8.20;;;1.00;;
71496;SDS011;59317;53.218;5.730;2022-09-16T02:39:17;8.93;;;0.65;;
71496;SDS011;59317;53.218;5.730;2022-09-16T02:41:44;10.20;;;0.85;;
71496;SDS011;59317;53.218;5.730;2022-09-16T02:44:11;8.90;;;0.60;;
71496;SDS011;59317;53.218;5.730;2022-09-16T02:56:42;9.90;;;0.90;;
71496;SDS011;59317;53.218;5.730;2022-09-16T02:59:09;7.97;;;0.70;;
71496;SDS011;59317;53.218;5.730;2022-09-16T03:01:41;8.45;;;0.80;;
71496;SDS011;59317;53.218;5.730;2022-09-16T03:04:08;9.70;;;1.00;;
71496;SDS011;59317;53.218;5.730;2022-09-16T03:06:35;9.57;;;1.10;;
71496;SDS011;59317;53.218;5.730;2022-09-16T03:09:02;10.38;;;0.80;;
71496;SDS011;59317;53.218;5.730;2022-09-16T03:17:44;10.88;;;1.00;;
71496;SDS011;59317;53.218;5.730;2022-09-16T03:19:44;10.38;;;1.10;;
71496;SDS011;59317;53.218;5.730;2022-09-16T03:22:17;7.70;;;0.80;;
71496;SDS011;59317;53.218;5.730;2022-09-16T03:24:58;10.88;;;1.10;;
71496;SDS011;59317;53.218;5.730;2022-09-16T03:27:34;8.32;;;0.77;;
71496;SDS011;59317;53.218;5.730;2022-09-16T03:30:05;12.67;;;1.30;;
71496;SDS011;59317;53.218;5.730;2022-09-16T03:32:33;10.18;;;0.77;;
71496;SDS011;59317;53.218;5.730;2022-09-16T03:35:22;12.10;;;1.00;;
71496;SDS011;59317;53.218;5.730;2022-09-16T03:37:47;11.13;;;0.98;;
71496;SDS011;59317;53.218;5.730;2022-09-16T03:40:14;10.32;;;0.93;;
71496;SDS011;59317;53.218;5.730;2022-09-16T03:42:41;9.70;;;0.90;;
71496;SDS011;59317;53.218;5.730;2022-09-16T03:45:09;9.82;;;0.90;;
71496;SDS011;59317;53.218;5.730;2022-09-16T03:47:35;11.77;;;0.77;;
71496;SDS011;59317;53.218;5.730;2022-09-16T03:50:02;9.98;;;0.88;;
71496;SDS011;59317;53.218;5.730;2022-09-16T03:52:28;11.13;;;1.02;;
71496;SDS011;59317;53.218;5.730;2022-09-16T03:54:54;9.80;;;0.80;;
71496;SDS011;59317;53.218;5.730;2022-09-16T03:57:20;9.63;;;0.80;;
71496;SDS011;59317;53.218;5.730;2022-09-16T03:59:46;8.88;;;0.75;;
71496;SDS011;59317;53.218;5.730;2022-09-16T04:02:12;9.77;;;0.70;;
71496;SDS011;59317;53.218;5.730;2022-09-16T04:04:38;9.33;;;0.67;;
71496;SDS011;59317;53.218;5.730;2022-09-16T04:07:04;9.07;;;0.73;;
71496;SDS011;59317;53.218;5.730;2022-09-16T04:09:30;8.23;;;0.90;;
71496;SDS011;59317;53.218;5.730;2022-09-16T04:11:56;7.70;;;0.90;;
71496;SDS011;59317;53.218;5.730;2022-09-16T04:14:22;8.85;;;1.10;;
71496;SDS011;59317;53.218;5.730;2022-09-16T04:16:48;6.70;;;0.65;;
71496;SDS011;59317;53.218;5.730;2022-09-16T04:19:13;11.00;;;0.90;;
71496;SDS011;59317;53.218;5.730;2022-09-16T04:21:40;6.72;;;0.63;;
71496;SDS011;59317;53.218;5.730;2022-09-16T04:24:06;8.27;;;0.70;;
71496;SDS011;59317;53.218;5.730;2022-09-16T04:26:32;8.68;;;0.65;;
71496;SDS011;59317;53.218;5.730;2022-09-16T04:28:58;8.47;;;0.77;;
71496;SDS011;59317;53.218;5.730;2022-09-16T04:31:24;10.68;;;0.93;;
71496;SDS011;59317;53.218;5.730;2022-09-16T04:33:50;10.60;;;0.73;;
71496;SDS011;59317;53.218;5.730;2022-09-16T04:36:17;9.27;;;0.70;;
71496;SDS011;59317;53.218;5.730;2022-09-16T04:38:43;11.43;;;0.75;;
71496;SDS011;59317;53.218;5.730;2022-09-16T04:41:21;8.23;;;0.68;;
71496;SDS011;59317;53.218;5.730;2022-09-16T04:43:54;10.10;;;0.70;;
71496;SDS011;59317;53.218;5.730;2022-09-16T04:46:21;10.48;;;0.90;;
71496;SDS011;59317;53.218;5.730;2022-09-16T04:48:47;9.97;;;0.87;;
71496;SDS011;59317;53.218;5.730;2022-09-16T04:51:13;8.00;;;0.80;;
71496;SDS011;59317;53.218;5.730;2022-09-16T04:53:40;10.23;;;0.90;;
71496;SDS011;59317;53.218;5.730;2022-09-16T04:56:08;10.50;;;0.88;;
71496;SDS011;59317;53.218;5.730;2022-09-16T04:58:37;9.60;;;0.68;;
71496;SDS011;59317;53.218;5.730;2022-09-16T05:01:04;8.80;;;1.02;;
71496;SDS011;59317;53.218;5.730;2022-09-16T05:03:30;8.88;;;0.93;;
71496;SDS011;59317;53.218;5.730;2022-09-16T05:06:03;8.13;;;0.68;;
71496;SDS011;59317;53.218;5.730;2022-09-16T05:08:29;8.23;;;0.70;;
71496;SDS011;59317;53.218;5.730;2022-09-16T05:11:01;7.80;;;0.63;;
71496;SDS011;59317;53.218;5.730;2022-09-16T05:13:27;9.18;;;0.60;;
71496;SDS011;59317;53.218;5.730;2022-09-16T05:15:53;6.60;;;0.57;;
71496;SDS011;59317;53.218;5.730;2022-09-16T05:18:19;7.65;;;0.73;;
71496;SDS011;59317;53.218;5.730;2022-09-16T05:20:45;7.57;;;0.70;;
71496;SDS011;59317;53.218;5.730;2022-09-16T05:23:11;8.68;;;0.63;;
71496;SDS011;59317;53.218;5.730;2022-09-16T05:25:37;9.45;;;0.90;;
71496;SDS011;59317;53.218;5.730;2022-09-16T05:28:02;9.73;;;1.20;;
71496;SDS011;59317;53.218;5.730;2022-09-16T05:30:28;7.97;;;0.70;;
71496;SDS011;59317;53.218;5.730;2022-09-16T05:32:54;8.38;;;0.60;;
71496;SDS011;59317;53.218;5.730;2022-09-16T05:35:20;8.00;;;0.68;;
71496;SDS011;59317;53.218;5.730;2022-09-16T05:37:48;8.85;;;0.70;;
71496;SDS011;59317;53.218;5.730;2022-09-16T05:40:14;8.32;;;0.70;;
71496;SDS011;59317;53.218;5.730;2022-09-16T05:42:40;9.25;;;0.77;;
71496;SDS011;59317;53.218;5.730;2022-09-16T05:45:06;6.05;;;0.55;;
71496;SDS011;59317;53.218;5.730;2022-09-16T05:47:32;5.82;;;0.57;;
71496;SDS011;59317;53.218;5.730;2022-09-16T05:49:58;10.00;;;0.77;;
71496;SDS011;59317;53.218;5.730;2022-09-16T05:52:25;8.93;;;0.70;;
71496;SDS011;59317;53.218;5.730;2022-09-16T05:54:51;9.93;;;0.85;;
71496;SDS011;59317;53.218;5.730;2022-09-16T05:57:17;10.13;;;0.80;;
71496;SDS011;59317;53.218;5.730;2022-09-16T05:59:43;9.03;;;1.00;;
71496;SDS011;59317;53.218;5.730;2022-09-16T06:02:09;11.18;;;0.80;;
71496;SDS011;59317;53.218;5.730;2022-09-16T06:04:36;8.60;;;0.90;;
71496;SDS011;59317;53.218;5.730;2022-09-16T06:07:02;9.10;;;0.90;;
71496;SDS011;59317;53.218;5.730;2022-09-16T06:09:29;9.10;;;0.87;;
71496;SDS011;59317;53.218;5.730;2022-09-16T06:11:55;10.83;;;0.87;;
71496;SDS011;59317;53.218;5.730;2022-09-16T06:14:21;9.70;;;0.90;;
71496;SDS011;59317;53.218;5.730;2022-09-16T06:16:47;9.93;;;1.00;;
71496;SDS011;59317;53.218;5.730;2022-09-16T06:19:15;10.97;;;1.20;;
71496;SDS011;59317;53.218;5.730;2022-09-16T06:21:41;12.27;;;1.10;;
71496;SDS011;59317;53.218;5.730;2022-09-16T06:24:08;12.43;;;1.10;;
71496;SDS011;59317;53.218;5.730;2022-09-16T06:26:35;13.90;;;0.95;;
71496;SDS011;59317;53.218;5.730;2022-09-16T06:29:01;11.43;;;1.20;;
71496;SDS011;59317;53.218;5.730;2022-09-16T06:31:27;10.88;;;0.70;;
71496;SDS011;59317;53.218;5.730;2022-09-16T06:33:54;11.73;;;1.10;;
71496;SDS011;59317;53.218;5.730;2022-09-16T06:36:27;10.18;;;0.82;;
71496;SDS011;59317;53.218;5.730;2022-09-16T06:38:54;11.00;;;1.03;;
71496;SDS011;59317;53.218;5.730;2022-09-16T06:41:20;9.63;;;1.00;;
71496;SDS011;59317;53.218;5.730;2022-09-16T06:43:46;8.20;;;0.90;;
71496;SDS011;59317;53.218;5.730;2022-09-16T06:46:14;9.32;;;0.88;;
71496;SDS011;59317;53.218;5.730;2022-09-16T06:48:40;9.43;;;0.82;;
71496;SDS011;59317;53.218;5.730;2022-09-16T06:51:12;8.20;;;0.80;;
71496;SDS011;59317;53.218;5.730;2022-09-16T06:53:38;9.07;;;1.08;;
71496;SDS011;59317;53.218;5.730;2022-09-16T06:56:07;9.40;;;0.80;;
71496;SDS011;59317;53.218;5.730;2022-09-16T06:58:35;9.27;;;0.90;;
71496;SDS011;59317;53.218;5.730;2022-09-16T07:01:05;8.95;;;1.10;;
71496;SDS011;59317;53.218;5.730;2022-09-16T07:03:31;11.03;;;1.10;;
71496;SDS011;59317;53.218;5.730;2022-09-16T07:05:57;10.35;;;1.23;;
71496;SDS011;59317;53.218;5.730;2022-09-16T07:08:27;10.80;;;1.13;;
71496;SDS011;59317;53.218;5.730;2022-09-16T07:13:22;7.85;;;1.10;;
71496;SDS011;59317;53.218;5.730;2022-09-16T07:15:48;9.80;;;1.15;;
71496;SDS011;59317;53.218;5.730;2022-09-16T07:18:14;10.43;;;1.15;;
71496;SDS011;59317;53.218;5.730;2022-09-16T07:20:40;11.20;;;1.27;;
71496;SDS011;59317;53.218;5.730;2022-09-16T07:23:06;10.13;;;1.05;;
71496;SDS011;59317;53.218;5.730;2022-09-16T07:25:32;12.20;;;1.20;;
71496;SDS011;59317;53.218;5.730;2022-09-16T07:27:59;9.38;;;1.10;;
71496;SDS011;59317;53.218;5.730;2022-09-16T07:30:25;7.18;;;0.88;;
71496;SDS011;59317;53.218;5.730;2022-09-16T07:32:54;6.72;;;0.90;;
71496;SDS011;59317;53.218;5.730;2022-09-16T07:35:20;8.75;;;0.82;;
71496;SDS011;59317;53.218;5.730;2022-09-16T07:37:46;9.68;;;1.10;;
71496;SDS011;59317;53.218;5.730;2022-09-16T07:40:12;10.25;;;1.20;;
71496;SDS011;59317;53.218;5.730;2022-09-16T07:42:38;11.48;;;1.30;;
71496;SDS011;59317;53.218;5.730;2022-09-16T07:45:04;13.25;;;1.45;;
71496;SDS011;59317;53.218;5.730;2022-09-16T07:47:32;13.73;;;1.37;;
71496;SDS011;59317;53.218;5.730;2022-09-16T07:49:58;10.23;;;1.10;;
71496;SDS011;59317;53.218;5.730;2022-09-16T07:52:24;8.60;;;1.13;;
71496;SDS011;59317;53.218;5.730;2022-09-16T07:54:56;9.40;;;1.00;;
71496;SDS011;59317;53.218;5.730;2022-09-16T07:57:22;6.60;;;0.80;;
71496;SDS011;59317;53.218;5.730;2022-09-16T07:59:48;10.57;;;1.10;;
71496;SDS011;59317;53.218;5.730;2022-09-16T08:02:14;6.38;;;0.90;;
71496;SDS011;59317;53.218;5.730;2022-09-16T08:04:40;8.33;;;1.00;;
71496;SDS011;59317;53.218;5.730;2022-09-16T08:07:06;8.63;;;1.00;;
71496;SDS011;59317;53.218;5.730;2022-09-16T08:09:33;6.45;;;0.80;;
71496;SDS011;59317;53.218;5.730;2022-09-16T08:12:00;8.13;;;0.90;;
71496;SDS011;59317;53.218;5.730;2022-09-16T08:14:27;7.00;;;0.88;;
71496;SDS011;59317;53.218;5.730;2022-09-16T08:16:53;8.45;;;0.98;;
71496;SDS011;59317;53.218;5.730;2022-09-16T08:19:19;8.95;;;0.90;;
71496;SDS011;59317;53.218;5.730;2022-09-16T08:21:46;9.43;;;1.00;;
71496;SDS011;59317;53.218;5.730;2022-09-16T08:24:12;11.38;;;1.35;;
71496;SDS011;59317;53.218;5.730;2022-09-16T08:26:40;9.57;;;1.00;;
71496;SDS011;59317;53.218;5.730;2022-09-16T08:29:06;8.75;;;1.10;;
71496;SDS011;59317;53.218;5.730;2022-09-16T08:31:32;8.82;;;1.20;;
71496;SDS011;59317;53.218;5.730;2022-09-16T08:33:58;11.40;;;1.30;;
71496;SDS011;59317;53.218;5.730;2022-09-16T08:36:24;7.75;;;1.10;;
71496;SDS011;59317;53.218;5.730;2022-09-16T08:38:51;10.10;;;1.02;;
71496;SDS011;59317;53.218;5.730;2022-09-16T08:43:52;7.95;;;1.20;;
71496;SDS011;59317;53.218;5.730;2022-09-16T08:47:04;6.80;;;0.77;;
71496;SDS011;59317;53.218;5.730;2022-09-16T08:49:15;8.48;;;1.10;;
71496;SDS011;59317;53.218;5.730;2022-09-16T08:51:42;7.75;;;0.75;;
71496;SDS011;59317;53.218;5.730;2022-09-16T08:54:10;6.47;;;0.80;;
71496;SDS011;59317;53.218;5.730;2022-09-16T08:56:37;8.82;;;1.10;;
71496;SDS011;59317;53.218;5.730;2022-09-16T08:59:05;7.28;;;1.00;;
71496;SDS011;59317;53.218;5.730;2022-09-16T09:01:38;7.00;;;1.05;;
71496;SDS011;59317;53.218;5.730;2022-09-16T09:04:04;10.57;;;0.93;;
71496;SDS011;59317;53.218;5.730;2022-09-16T09:14:29;11.07;;;1.30;;
71496;SDS011;59317;53.218;5.730;2022-09-16T09:17:08;7.85;;;1.10;;
71496;SDS011;59317;53.218;5.730;2022-09-16T09:19:47;10.30;;;0.98;;
71496;SDS011;59317;53.218;5.730;2022-09-16T09:27:16;10.85;;;1.50;;
71496;SDS011;59317;53.218;5.730;2022-09-16T09:32:32;8.85;;;1.05;;
71496;SDS011;59317;53.218;5.730;2022-09-16T09:45:34;8.93;;;1.00;;
71496;SDS011;59317;53.218;5.730;2022-09-16T09:48:00;7.90;;;0.80;;
71496;SDS011;59317;53.218;5.730;2022-09-16T09:50:28;12.93;;;1.10;;
71496;SDS011;59317;53.218;5.730;2022-09-16T09:53:11;8.73;;;1.03;;
71496;SDS011;59317;53.218;5.730;2022-09-16T09:55:39;9.40;;;1.00;;
71496;SDS011;59317;53.218;5.730;2022-09-16T09:58:22;9.32;;;1.10;;
71496;SDS011;59317;53.218;5.730;2022-09-16T10:00:48;9.27;;;0.95;;
71496;SDS011;59317;53.218;5.730;2022-09-16T10:03:17;10.10;;;1.00;;
71496;SDS011;59317;53.218;5.730;2022-09-16T10:05:44;7.70;;;0.90;;
71496;SDS011;59317;53.218;5.730;2022-09-16T10:10:38;8.07;;;0.80;;
71496;SDS011;59317;53.218;5.730;2022-09-16T10:13:10;9.80;;;1.10;;
71496;SDS011;59317;53.218;5.730;2022-09-16T10:15:37;7.90;;;0.80;;
71496;SDS011;59317;53.218;5.730;2022-09-16T10:18:13;9.45;;;1.20;;
71496;SDS011;59317;53.218;5.730;2022-09-16T10:20:44;8.17;;;0.90;;
71496;SDS011;59317;53.218;5.730;2022-09-16T10:23:21;8.47;;;0.90;;
71496;SDS011;59317;53.218;5.730;2022-09-16T10:25:47;8.52;;;0.90;;
71496;SDS011;59317;53.218;5.730;2022-09-16T10:28:18;10.55;;;1.30;;
71496;SDS011;59317;53.218;5.730;2022-09-16T10:30:49;9.00;;;1.20;;
71496;SDS011;59317;53.218;5.730;2022-09-16T10:33:26;9.65;;;1.25;;
71496;SDS011;59317;53.218;5.730;2022-09-16T10:35:54;9.02;;;1.27;;
71496;SDS011;59317;53.218;5.730;2022-09-16T10:38:22;11.35;;;1.23;;
71496;SDS011;59317;53.218;5.730;2022-09-16T10:40:56;11.90;;;1.15;;
71496;SDS011;59317;53.218;5.730;2022-09-16T10:43:25;9.43;;;0.98;;
71496;SDS011;59317;53.218;5.730;2022-09-16T10:45:53;8.68;;;1.08;;
71496;SDS011;59317;53.218;5.730;2022-09-16T10:48:25;11.23;;;1.20;;
71496;SDS011;59317;53.218;5.730;2022-09-16T10:50:53;8.32;;;1.00;;
71496;SDS011;59317;53.218;5.730;2022-09-16T10:53:26;8.48;;;0.88;;
71496;SDS011;59317;53.218;5.730;2022-09-16T10:55:56;8.73;;;0.90;;
71496;SDS011;59317;53.218;5.730;2022-09-16T10:58:22;8.82;;;1.00;;
71496;SDS011;59317;53.218;5.730;2022-09-16T11:03:31;7.30;;;1.00;;
71496;SDS011;59317;53.218;5.730;2022-09-16T11:06:17;10.18;;;1.00;;
71496;SDS011;59317;53.218;5.730;2022-09-16T11:11:18;8.90;;;0.93;;
71496;SDS011;59317;53.218;5.730;2022-09-16T11:14:05;7.50;;;0.75;;
71496;SDS011;59317;53.218;5.730;2022-09-16T11:19:18;10.85;;;0.73;;
71496;SDS011;59317;53.218;5.730;2022-09-16T11:21:55;9.15;;;1.15;;
71496;SDS011;59317;53.218;5.730;2022-09-16T11:24:28;7.95;;;0.95;;
71496;SDS011;59317;53.218;5.730;2022-09-16T11:35:07;9.77;;;1.38;;
71496;SDS011;59317;53.218;5.730;2022-09-16T11:37:42;9.30;;;1.10;;
71496;SDS011;59317;53.218;5.730;2022-09-16T11:42:41;11.17;;;1.00;;
71496;SDS011;59317;53.218;5.730;2022-09-16T11:48:08;10.90;;;1.40;;
71496;SDS011;59317;53.218;5.730;2022-09-16T11:50:44;8.13;;;0.85;;
71496;SDS011;59317;53.218;5.730;2022-09-16T11:56:19;9.87;;;1.00;;
71496;SDS011;59317;53.218;5.730;2022-09-16T11:58:49;9.63;;;1.23;;
71496;SDS011;59317;53.218;5.730;2022-09-16T12:03:48;11.65;;;1.23;;
71496;SDS011;59317;53.218;5.730;2022-09-16T12:06:17;7.65;;;1.00;;
71496;SDS011;59317;53.218;5.730;2022-09-16T12:13:43;12.38;;;1.10;;
71496;SDS011;59317;53.218;5.730;2022-09-16T12:16:15;13.40;;;1.50;;
71496;SDS011;59317;53.218;5.730;2022-09-16T12:18:49;12.60;;;1.43;;
71496;SDS011;59317;53.218;5.730;2022-09-16T12:21:33;10.70;;;1.25;;
71496;SDS011;59317;53.218;5.730;2022-09-16T12:24:05;11.73;;;1.35;;
71496;SDS011;59317;53.218;5.730;2022-09-16T12:26:36;10.65;;;1.40;;
71496;SDS011;59317;53.218;5.730;2022-09-16T12:29:05;13.50;;;1.50;;
71496;SDS011;59317;53.218;5.730;2022-09-16T12:31:39;9.27;;;1.17;;
71496;SDS011;59317;53.218;5.730;2022-09-16T12:34:09;13.88;;;1.58;;
71496;SDS011;59317;53.218;5.730;2022-09-16T12:36:36;12.25;;;1.80;;
71496;SDS011;59317;53.218;5.730;2022-09-16T12:39:02;12.93;;;1.60;;
71496;SDS011;59317;53.218;5.730;2022-09-16T12:44:01;12.30;;;1.43;;
71496;SDS011;59317;53.218;5.730;2022-09-16T12:46:48;10.40;;;1.20;;
71496;SDS011;59317;53.218;5.730;2022-09-16T12:57:15;10.50;;;1.00;;
71496;SDS011;59317;53.218;5.730;2022-09-16T13:02:14;13.07;;;1.30;;
71496;SDS011;59317;53.218;5.730;2022-09-16T13:04:45;12.85;;;1.30;;
71496;SDS011;59317;53.218;5.730;2022-09-16T13:07:28;11.05;;;1.35;;
71496;SDS011;59317;53.218;5.730;2022-09-16T13:12:28;11.45;;;1.40;;
71496;SDS011;59317;53.218;5.730;2022-09-16T13:14:56;13.10;;;1.83;;
71496;SDS011;59317;53.218;5.730;2022-09-16T13:17:33;11.30;;;1.38;;
71496;SDS011;59317;53.218;5.730;2022-09-16T13:20:01;13.48;;;1.55;;
71496;SDS011;59317;53.218;5.730;2022-09-16T13:22:43;15.32;;;1.65;;
71496;SDS011;59317;53.218;5.730;2022-09-16T13:27:37;10.87;;;1.20;;
71496;SDS011;59317;53.218;5.730;2022-09-16T13:37:30;11.77;;;1.50;;
71496;SDS011;59317;53.218;5.730;2022-09-16T13:40:06;10.02;;;1.30;;
71496;SDS011;59317;53.218;5.730;2022-09-16T13:42:33;12.00;;;1.40;;
71496;SDS011;59317;53.218;5.730;2022-09-16T13:44:59;16.00;;;1.63;;
71496;SDS011;59317;53.218;5.730;2022-09-16T13:47:30;12.52;;;1.70;;
71496;SDS011;59317;53.218;5.730;2022-09-16T13:49:59;12.17;;;1.60;;
71496;SDS011;59317;53.218;5.730;2022-09-16T13:52:29;9.47;;;1.50;;
71496;SDS011;59317;53.218;5.730;2022-09-16T13:54:57;9.85;;;1.30;;
71496;SDS011;59317;53.218;5.730;2022-09-16T13:57:37;9.43;;;1.10;;
71496;SDS011;59317;53.218;5.730;2022-09-16T14:00:25;10.07;;;1.30;;
71496;SDS011;59317;53.218;5.730;2022-09-16T14:03:00;11.18;;;1.45;;
71496;SDS011;59317;53.218;5.730;2022-09-16T14:05:55;11.52;;;1.38;;
71496;SDS011;59317;53.218;5.730;2022-09-16T14:08:35;11.30;;;1.30;;
71496;SDS011;59317;53.218;5.730;2022-09-16T14:13:35;14.35;;;1.63;;
71496;SDS011;59317;53.218;5.730;2022-09-16T14:16:03;11.85;;;1.50;;
71496;SDS011;59317;53.218;5.730;2022-09-16T14:18:31;12.45;;;1.55;;
71496;SDS011;59317;53.218;5.730;2022-09-16T14:21:02;13.98;;;1.58;;
71496;SDS011;59317;53.218;5.730;2022-09-16T14:23:29;12.43;;;1.60;;
71496;SDS011;59317;53.218;5.730;2022-09-16T14:25:56;13.18;;;1.63;;
71496;SDS011;59317;53.218;5.730;2022-09-16T14:30:51;14.85;;;2.10;;
71496;SDS011;59317;53.218;5.730;2022-09-16T14:33:22;14.60;;;1.90;;
71496;SDS011;59317;53.218;5.730;2022-09-16T14:35:49;13.73;;;1.80;;
71496;SDS011;59317;53.218;5.730;2022-09-16T14:38:17;9.57;;;1.48;;
71496;SDS011;59317;53.218;5.730;2022-09-16T14:40:44;7.73;;;0.77;;
71496;SDS011;59317;53.218;5.730;2022-09-16T14:43:13;7.85;;;0.85;;
71496;SDS011;59317;53.218;5.730;2022-09-16T14:45:42;10.30;;;1.08;;
71496;SDS011;59317;53.218;5.730;2022-09-16T14:48:09;9.43;;;1.05;;
71496;SDS011;59317;53.218;5.730;2022-09-16T14:50:36;10.27;;;1.13;;
71496;SDS011;59317;53.218;5.730;2022-09-16T14:53:04;8.80;;;0.85;;
71496;SDS011;59317;53.218;5.730;2022-09-16T14:55:31;10.20;;;1.40;;
71496;SDS011;59317;53.218;5.730;2022-09-16T14:58:00;12.40;;;1.40;;
71496;SDS011;59317;53.218;5.730;2022-09-16T15:00:34;12.27;;;1.75;;
71496;SDS011;59317;53.218;5.730;2022-09-16T15:03:12;10.70;;;1.08;;
71496;SDS011;59317;53.218;5.730;2022-09-16T15:05:40;12.50;;;1.30;;
71496;SDS011;59317;53.218;5.730;2022-09-16T15:08:14;10.20;;;1.20;;
71496;SDS011;59317;53.218;5.730;2022-09-16T15:10:49;10.80;;;1.10;;
71496;SDS011;59317;53.218;5.730;2022-09-16T15:13:16;10.05;;;0.95;;
71496;SDS011;59317;53.218;5.730;2022-09-16T15:15:52;10.50;;;1.35;;
71496;SDS011;59317;53.218;5.730;2022-09-16T15:20:48;7.10;;;0.90;;
71496;SDS011;59317;53.218;5.730;2022-09-16T15:23:19;6.53;;;0.60;;
71496;SDS011;59317;53.218;5.730;2022-09-16T15:25:52;9.52;;;0.93;;
71496;SDS011;59317;53.218;5.730;2022-09-16T15:28:19;11.57;;;1.00;;
71496;SDS011;59317;53.218;5.730;2022-09-16T15:30:46;11.13;;;0.93;;
71496;SDS011;59317;53.218;5.730;2022-09-16T15:35:57;9.23;;;1.00;;
71496;SDS011;59317;53.218;5.730;2022-09-16T15:38:23;13.63;;;1.48;;
71496;SDS011;59317;53.218;5.730;2022-09-16T15:41:11;12.73;;;1.15;;
71496;SDS011;59317;53.218;5.730;2022-09-16T15:43:36;12.63;;;1.33;;
71496;SDS011;59317;53.218;5.730;2022-09-16T15:46:04;11.57;;;0.90;;
71496;SDS011;59317;53.218;5.730;2022-09-16T15:48:43;10.77;;;1.10;;
71496;SDS011;59317;53.218;5.730;2022-09-16T15:51:18;12.50;;;1.25;;
71496;SDS011;59317;53.218;5.730;2022-09-16T15:53:46;9.77;;;0.93;;
71496;SDS011;59317;53.218;5.730;2022-09-16T15:56:26;11.43;;;0.90;;
71496;SDS011;59317;53.218;5.730;2022-09-16T15:58:55;9.82;;;1.00;;
71496;SDS011;59317;53.218;5.730;2022-09-16T16:01:36;9.18;;;1.02;;
71496;SDS011;59317;53.218;5.730;2022-09-16T16:04:04;13.02;;;1.13;;
71496;SDS011;59317;53.218;5.730;2022-09-16T16:06:44;10.65;;;1.02;;
71496;SDS011;59317;53.218;5.730;2022-09-16T16:11:56;10.38;;;1.27;;
71496;SDS011;59317;53.218;5.730;2022-09-16T16:14:23;11.73;;;1.23;;
71496;SDS011;59317;53.218;5.730;2022-09-16T16:16:52;11.68;;;1.13;;
71496;SDS011;59317;53.218;5.730;2022-09-16T16:19:19;10.98;;;1.30;;
71496;SDS011;59317;53.218;5.730;2022-09-16T16:21:45;9.02;;;0.88;;
71496;SDS011;59317;53.218;5.730;2022-09-16T16:24:11;9.05;;;0.90;;
71496;SDS011;59317;53.218;5.730;2022-09-16T16:26:38;8.98;;;0.90;;
71496;SDS011;59317;53.218;5.730;2022-09-16T16:29:04;10.15;;;1.20;;
71496;SDS011;59317;53.218;5.730;2022-09-16T16:31:30;8.98;;;0.98;;
71496;SDS011;59317;53.218;5.730;2022-09-16T16:33:56;9.23;;;0.90;;
71496;SDS011;59317;53.218;5.730;2022-09-16T16:36:22;9.17;;;0.80;;
71496;SDS011;59317;53.218;5.730;2022-09-16T16:38:49;10.77;;;0.90;;
71496;SDS011;59317;53.218;5.730;2022-09-16T16:41:18;9.35;;;0.90;;
71496;SDS011;59317;53.218;5.730;2022-09-16T16:43:44;11.95;;;1.30;;
71496;SDS011;59317;53.218;5.730;2022-09-16T16:46:10;8.25;;;0.80;;
71496;SDS011;59317;53.218;5.730;2022-09-16T16:48:36;10.80;;;0.70;;
71496;SDS011;59317;53.218;5.730;2022-09-16T16:51:04;9.18;;;1.05;;
71496;SDS011;59317;53.218;5.730;2022-09-16T16:53:31;7.55;;;0.80;;
71496;SDS011;59317;53.218;5.730;2022-09-16T16:56:15;8.25;;;0.80;;
71496;SDS011;59317;53.218;5.730;2022-09-16T16:58:41;9.95;;;0.88;;
71496;SDS011;59317;53.218;5.730;2022-09-16T17:01:11;8.90;;;1.10;;
71496;SDS011;59317;53.218;5.730;2022-09-16T17:03:38;12.40;;;1.20;;
71496;SDS011;59317;53.218;5.730;2022-09-16T17:06:04;15.35;;;1.48;;
71496;SDS011;59317;53.218;5.730;2022-09-16T17:08:31;10.97;;;1.20;;
71496;SDS011;59317;53.218;5.730;2022-09-16T17:11:04;12.85;;;1.25;;
71496;SDS011;59317;53.218;5.730;2022-09-16T17:13:30;13.55;;;1.52;;
71496;SDS011;59317;53.218;5.730;2022-09-16T17:15:56;11.75;;;1.60;;
71496;SDS011;59317;53.218;5.730;2022-09-16T17:18:22;15.33;;;1.40;;
71496;SDS011;59317;53.218;5.730;2022-09-16T17:20:48;11.90;;;1.23;;